Terminal Aerodrome Forecast
Issued by NWS

Home | Current Version | Previous Version | Graphics & Text | Print | Product List | Glossary On
Versions: 1 2 3 4 5 6 7 8 9 10 11 12 13 14 15 16 17 18 19 20 21 22
000
FTUS43 KBIS 271913 AAA
TAFJMS
TAF AMD
KJMS 271913Z 2719/2818 12006KT P6SM VCTS SCT070CB
      TEMPO 2719/2722 5SM -TSRA BKN050CB
     FM280100 13007KT P6SM SCT090
     FM280400 13009KT 3SM -SHRA BR BKN025
     FM281000 14006KT 5SM BR BKN015=

USA.gov is the U.S. government's official web portal to all federal, state and local government web resources and services.